Time;durP1;ratioP1;P1;durP2;ratioP2;P2;SDS_P1;SDS_P2;PMS_P1;PMS_P2;Temp;Humidity;BMP_temperature;BMP_pressure;BME280_temperature;BME280_humidity;BME280_pressure;Samples;Min_cycle;Max_cycle;Signal;HPM_P1;HPM_P2
2022/08/01 00:00:01;;;;;;;43.55;25.38;;;17.90;99.90;;;;;;5028092;28;20025;-73
2022/08/01 00:02:27;;;;;;;35.67;22.17;;;17.90;99.90;;;;;;5030328;28;20049;-73
2022/08/01 00:04:56;;;;;;;34.00;22.15;;;17.90;99.90;;;;;;5033360;28;20032;-73
2022/08/01 00:07:21;;;;;;;33.67;22.08;;;17.90;99.90;;;;;;5033888;28;20113;-73
2022/08/01 00:09:47;;;;;;;36.85;21.85;;;17.90;99.90;;;;;;5033322;28;20536;-73
2022/08/01 00:12:12;;;;;;;34.30;21.40;;;17.90;99.90;;;;;;5033750;28;20079;-73
2022/08/01 00:14:38;;;;;;;30.92;20.27;;;17.80;99.90;;;;;;5029256;28;20025;-73
2022/08/01 00:17:03;;;;;;;33.58;20.77;;;17.90;99.90;;;;;;5020712;28;20354;-73
2022/08/01 00:19:29;;;;;;;34.45;21.33;;;17.90;99.90;;;;;;5027913;28;20033;-73
2022/08/01 00:21:54;;;;;;;34.50;20.33;;;17.90;99.90;;;;;;5033889;28;20029;-73
2022/08/01 00:24:20;;;;;;;35.35;21.17;;;17.90;99.90;;;;;;5030376;28;20384;-73
2022/08/01 00:26:45;;;;;;;37.22;21.35;;;17.90;99.90;;;;;;5033134;28;20056;-73
2022/08/01 00:29:11;;;;;;;32.47;21.23;;;17.90;99.90;;;;;;5033497;28;20034;-73
2022/08/01 00:31:37;;;;;;;32.67;20.45;;;17.90;99.90;;;;;;5032107;28;20052;-73
2022/08/01 00:34:02;;;;;;;32.78;20.50;;;17.90;99.90;;;;;;5032694;28;20025;-73
2022/08/01 00:36:28;;;;;;;33.75;21.00;;;17.90;99.90;;;;;;5033040;28;20045;-73
2022/08/01 00:38:53;;;;;;;28.98;20.50;;;17.90;99.90;;;;;;5025443;28;20054;-73
2022/08/01 00:41:18;;;;;;;33.97;20.83;;;17.90;99.90;;;;;;5032952;28;20025;-73
2022/08/01 00:43:44;;;;;;;34.30;20.98;;;17.90;99.90;;;;;;5033302;28;20156;-73
2022/08/01 00:46:09;;;;;;;34.65;21.77;;;17.80;99.90;;;;;;5029210;28;20033;-73
2022/08/01 00:48:35;;;;;;;32.70;20.85;;;17.80;99.90;;;;;;5030640;28;20136;-73
2022/08/01 00:51:02;;;;;;;30.70;20.85;;;17.80;99.90;;;;;;5033170;28;20503;-73
2022/08/01 00:53:28;;;;;;;32.83;20.80;;;17.80;99.90;;;;;;5031041;28;20025;-73
2022/08/01 00:55:54;;;;;;;34.38;20.58;;;17.80;99.90;;;;;;5031498;28;20132;-73
2022/08/01 00:58:19;;;;;;;29.08;20.00;;;17.80;99.90;;;;;;5032531;28;20030;-73
2022/08/01 01:00:45;;;;;;;29.80;19.05;;;17.80;99.90;;;;;;5033175;28;20025;-73
2022/08/01 01:03:10;;;;;;;33.53;19.30;;;17.80;99.90;;;;;;5031232;28;20029;-73
2022/08/01 01:05:45;;;;;;;31.13;18.60;;;17.80;99.90;;;;;;5032474;28;20084;-73
2022/08/01 01:08:24;;;;;;;33.58;18.73;;;17.80;99.90;;;;;;5032921;28;20384;-73
2022/08/01 01:10:57;;;;;;;30.00;19.58;;;17.80;99.90;;;;;;5021848;28;20485;-73
2022/08/01 01:13:38;;;;;;;33.67;20.27;;;17.80;99.90;;;;;;5030799;28;20048;-73
2022/08/01 01:16:12;;;;;;;35.25;20.45;;;17.80;99.90;;;;;;5018608;28;20025;-73
2022/08/01 01:18:44;;;;;;;31.40;18.65;;;17.70;99.90;;;;;;5029892;28;20037;-73
2022/08/01 01:21:19;;;;;;;30.75;18.60;;;17.70;99.90;;;;;;5032577;28;20041;-73
2022/08/01 01:24:08;;;;;;;31.48;18.95;;;17.70;99.90;;;;;;5029633;28;20037;-73
2022/08/01 01:26:50;;;;;;;34.08;19.00;;;17.70;99.90;;;;;;5032279;28;20631;-73
2022/08/01 01:29:21;;;;;;;32.30;18.27;;;17.70;99.90;;;;;;5030682;28;20040;-73
2022/08/01 01:31:55;;;;;;;29.98;18.30;;;17.70;99.90;;;;;;5022791;28;20041;-73
2022/08/01 01:34:23;;;;;;;30.67;18.83;;;17.80;99.90;;;;;;5020519;28;20091;-73
2022/08/01 01:36:51;;;;;;;37.50;19.27;;;17.70;99.90;;;;;;5032401;28;20025;-73
2022/08/01 01:39:19;;;;;;;31.42;18.33;;;17.70;99.90;;;;;;5031609;28;20415;-73
2022/08/01 01:41:48;;;;;;;30.75;17.58;;;17.60;99.90;;;;;;5032017;28;20419;-73
2022/08/01 01:44:15;;;;;;;25.52;17.25;;;17.60;99.90;;;;;;5032524;28;20474;-73
2022/08/01 01:46:42;;;;;;;26.48;17.23;;;17.60;99.90;;;;;;5030344;28;20025;-73
2022/08/01 01:49:10;;;;;;;31.05;17.92;;;17.60;99.90;;;;;;5029475;28;20033;-73
2022/08/01 01:51:36;;;;;;;25.02;16.45;;;17.60;99.90;;;;;;5027453;28;20052;-73
2022/08/01 01:54:03;;;;;;;25.05;16.15;;;17.60;99.90;;;;;;5025937;28;20334;-73
2022/08/01 01:56:30;;;;;;;26.17;16.33;;;17.60;99.90;;;;;;5031716;28;20025;-73
2022/08/01 01:59:00;;;;;;;29.52;17.88;;;17.60;99.90;;;;;;5026460;28;20368;-73
2022/08/01 02:01:30;;;;;;;30.58;17.52;;;17.60;99.90;;;;;;5028931;28;20412;-73
2022/08/01 02:03:57;;;;;;;31.10;16.45;;;17.60;99.90;;;;;;5031373;28;20025;-73
2022/08/01 02:06:25;;;;;;;28.30;17.23;;;17.60;99.90;;;;;;5032146;28;20030;-73
2022/08/01 02:08:52;;;;;;;25.10;17.05;;;17.60;99.90;;;;;;5031245;28;20025;-73
2022/08/01 02:11:20;;;;;;;25.67;15.23;;;17.50;99.90;;;;;;5031310;28;20022;-73
2022/08/01 02:13:52;;;;;;;23.92;15.60;;;17.50;99.90;;;;;;5025224;28;20034;-73
2022/08/01 02:16:20;;;;;;;19.85;14.93;;;17.50;99.90;;;;;;5028270;28;20033;-73
2022/08/01 02:18:46;;;;;;;19.52;12.63;;;17.50;99.90;;;;;;5031170;28;20036;-73
2022/08/01 02:21:15;;;;;;;17.80;11.73;;;17.40;99.90;;;;;;5031622;28;20021;-74
2022/08/01 02:23:43;;;;;;;16.42;11.90;;;17.40;99.70;;;;;;5029127;28;20507;-73
2022/08/01 02:26:13;;;;;;;18.38;13.18;;;17.30;99.80;;;;;;5030981;28;20021;-73
2022/08/01 02:29:12;;;;;;;18.25;13.35;;;17.30;99.60;;;;;;5031478;28;20041;-73
2022/08/01 02:31:41;;;;;;;17.45;12.60;;;17.30;99.70;;;;;;5029108;28;20041;-73
2022/08/01 02:34:10;;;;;;;17.40;12.20;;;17.30;99.70;;;;;;5030840;28;20032;-73
2022/08/01 02:36:37;;;;;;;18.83;12.80;;;17.30;99.70;;;;;;5030896;28;20040;-73
2022/08/01 02:39:08;;;;;;;16.65;11.48;;;17.20;99.70;;;;;;5030425;28;20052;-73
2022/08/01 02:41:38;;;;;;;15.95;11.52;;;17.20;99.60;;;;;;5030871;28;20029;-73
2022/08/01 02:44:06;;;;;;;15.98;11.40;;;17.20;99.70;;;;;;5027302;28;20014;-73
2022/08/01 02:46:39;;;;;;;16.42;11.60;;;17.10;99.60;;;;;;5026450;28;20421;-73
2022/08/01 02:49:07;;;;;;;15.75;11.32;;;17.20;99.70;;;;;;5029156;28;20044;-73
2022/08/01 02:51:34;;;;;;;15.30;10.95;;;17.20;99.70;;;;;;5031140;28;20452;-73
2022/08/01 02:54:02;;;;;;;17.38;11.60;;;17.10;99.60;;;;;;5029361;28;20396;-73
2022/08/01 02:56:34;;;;;;;21.05;11.82;;;17.10;99.60;;;;;;5030509;28;20512;-73
2022/08/01 02:59:02;;;;;;;16.65;11.15;;;17.10;99.60;;;;;;5030641;28;20035;-73
2022/08/01 03:01:28;;;;;;;17.27;11.65;;;17.10;99.70;;;;;;5029388;28;20057;-73
2022/08/01 03:03:54;;;;;;;19.15;10.82;;;17.10;99.70;;;;;;5029798;28;20029;-73
2022/08/01 03:06:20;;;;;;;20.08;12.15;;;17.10;99.70;;;;;;5019845;28;20221;-73
2022/08/01 03:08:48;;;;;;;16.27;11.07;;;17.10;99.80;;;;;;5027602;28;20215;-73
2022/08/01 03:11:14;;;;;;;18.15;12.40;;;17.10;99.70;;;;;;5028276;28;20045;-73
2022/08/01 03:13:43;;;;;;;20.58;12.20;;;17.10;99.80;;;;;;5016480;28;20064;-73
2022/08/01 03:16:10;;;;;;;17.88;11.95;;;17.10;99.70;;;;;;5025267;28;20029;-73
2022/08/01 03:18:37;;;;;;;18.83;11.85;;;17.10;99.70;;;;;;5020097;28;20030;-73
2022/08/01 03:21:05;;;;;;;19.17;11.90;;;17.10;99.80;;;;;;5030052;28;20423;-73
2022/08/01 03:23:32;;;;;;;17.92;11.80;;;17.10;99.80;;;;;;5029970;28;20493;-73
2022/08/01 03:26:00;;;;;;;19.90;12.65;;;17.10;99.80;;;;;;5030194;28;20022;-73
2022/08/01 03:28:27;;;;;;;22.52;11.68;;;17.10;99.80;;;;;;5030413;28;20055;-73
2022/08/01 03:30:53;;;;;;;19.00;11.52;;;17.10;99.80;;;;;;5030334;28;20029;-73
2022/08/01 03:33:18;;;;;;;15.75;11.40;;;17.10;99.90;;;;;;5028801;28;20476;-73
2022/08/01 03:35:48;;;;;;;19.52;11.20;;;17.10;99.90;;;;;;5028462;28;20034;-73
2022/08/01 03:38:18;;;;;;;15.85;11.32;;;17.10;99.90;;;;;;5028610;28;20139;-73
2022/08/01 03:40:53;;;;;;;17.52;11.15;;;17.10;99.90;;;;;;5028703;28;20025;-73
2022/08/01 03:43:47;;;;;;;17.83;11.35;;;17.10;99.90;;;;;;5030232;28;20389;-73
2022/08/01 03:46:25;;;;;;;13.73;10.43;;;17.10;99.90;;;;;;5025381;28;20033;-73
2022/08/01 03:48:54;;;;;;;15.18;9.30;;;17.10;99.90;;;;;;5027742;28;20037;-73
2022/08/01 03:51:22;;;;;;;12.98;9.68;;;17.10;99.90;;;;;;5030654;28;20025;-73
2022/08/01 03:53:50;;;;;;;13.98;9.38;;;17.10;99.90;;;;;;5029445;28;20033;-73
2022/08/01 03:56:19;;;;;;;14.07;8.43;;;17.00;99.80;;;;;;5029612;28;20018;-73
2022/08/01 03:58:45;;;;;;;12.07;7.80;;;17.10;99.90;;;;;;5030394;28;20080;-73
2022/08/01 04:01:12;;;;;;;10.45;7.18;;;17.00;99.80;;;;;;5029521;28;20036;-74
2022/08/01 04:03:38;;;;;;;12.95;7.32;;;17.00;99.80;;;;;;5028871;28;20022;-73
2022/08/01 04:06:04;;;;;;;8.93;6.40;;;17.00;99.80;;;;;;5029800;28;20160;-73
2022/08/01 04:08:40;;;;;;;9.38;6.28;;;17.00;99.80;;;;;;5029269;28;20040;-73
2022/08/01 04:11:08;;;;;;;9.18;5.50;;;17.00;99.80;;;;;;5027884;28;20022;-73
2022/08/01 04:13:33;;;;;;;13.43;5.43;;;17.00;99.80;;;;;;5028134;28;20025;-73
2022/08/01 04:15:59;;;;;;;8.05;5.32;;;17.00;99.90;;;;;;5029526;28;20063;-73
2022/08/01 04:18:25;;;;;;;6.63;4.63;;;17.00;99.90;;;;;;5027109;28;20038;-73
2022/08/01 04:20:51;;;;;;;6.97;4.70;;;17.00;99.90;;;;;;5029925;28;20469;-72
2022/08/01 04:23:23;;;;;;;9.73;4.75;;;16.90;99.90;;;;;;5030111;28;20025;-72
2022/08/01 04:25:50;;;;;;;7.22;4.20;;;17.00;99.90;;;;;;5029356;28;20039;-73
2022/08/01 04:28:17;;;;;;;6.75;4.38;;;17.00;99.90;;;;;;5029866;28;20057;-71
2022/08/01 04:30:46;;;;;;;10.00;5.05;;;17.00;99.90;;;;;;5030264;28;20033;-71
2022/08/01 04:33:16;;;;;;;7.20;4.60;;;17.00;99.80;;;;;;5027699;28;20087;-71
2022/08/01 04:35:45;;;;;;;8.18;4.47;;;17.10;99.90;;;;;;5029234;28;20507;-71
2022/08/01 04:38:12;;;;;;;7.85;4.95;;;17.00;99.80;;;;;;5029567;28;20045;-71
2022/08/01 04:40:45;;;;;;;9.80;5.53;;;17.10;99.80;;;;;;5029212;28;20076;-71
2022/08/01 04:43:11;;;;;;;7.45;5.25;;;17.10;99.80;;;;;;5029662;28;20022;-71
2022/08/01 04:45:37;;;;;;;9.90;5.50;;;17.00;99.70;;;;;;5027305;28;20037;-71
2022/08/01 04:48:08;;;;;;;10.13;5.25;;;17.10;99.80;;;;;;5022948;28;20025;-71
2022/08/01 04:50:36;;;;;;;8.10;5.45;;;17.10;99.80;;;;;;5033208;28;20121;-71
2022/08/01 04:53:02;;;;;;;8.50;5.22;;;17.10;99.60;;;;;;5033284;28;20388;-71
2022/08/01 04:55:28;;;;;;;13.73;5.55;;;17.10;99.70;;;;;;5032508;28;20025;-71
2022/08/01 04:57:54;;;;;;;7.88;5.25;;;17.10;99.70;;;;;;5032516;28;20112;-71
2022/08/01 05:00:19;;;;;;;10.15;5.70;;;17.10;99.80;;;;;;5033345;28;20018;-71
2022/08/01 05:02:46;;;;;;;8.23;5.85;;;17.10;99.70;;;;;;5030672;28;20095;-71
2022/08/01 05:05:11;;;;;;;8.98;5.40;;;17.10;99.70;;;;;;5032872;28;20018;-71
2022/08/01 05:07:37;;;;;;;8.45;5.88;;;17.10;99.80;;;;;;5032741;28;20113;-71
2022/08/01 05:10:04;;;;;;;8.82;5.68;;;17.10;99.70;;;;;;5024851;28;20354;-71
2022/08/01 05:12:31;;;;;;;10.02;5.72;;;17.10;99.80;;;;;;5026348;28;20057;-71
2022/08/01 05:14:57;;;;;;;8.60;5.80;;;17.10;99.80;;;;;;5032944;28;20059;-70
2022/08/01 05:17:23;;;;;;;9.90;5.68;;;17.10;99.90;;;;;;5030647;28;20022;-70
2022/08/01 05:19:48;;;;;;;9.68;5.60;;;17.10;99.90;;;;;;5029143;28;20033;-70
2022/08/01 05:22:14;;;;;;;7.13;4.72;;;17.00;99.80;;;;;;5032957;28;20033;-70
2022/08/01 05:24:40;;;;;;;6.95;4.88;;;17.00;99.90;;;;;;5030787;28;20021;-70
2022/08/01 05:27:07;;;;;;;8.30;4.97;;;17.00;99.90;;;;;;5032327;28;20456;-70
2022/08/01 05:29:33;;;;;;;10.30;5.28;;;17.00;99.90;;;;;;5029774;28;20029;-70
2022/08/01 05:31:59;;;;;;;7.60;5.00;;;17.00;99.90;;;;;;5030671;28;20030;-70
2022/08/01 05:34:25;;;;;;;9.07;5.40;;;17.00;99.90;;;;;;5031987;28;20017;-70
2022/08/01 05:36:50;;;;;;;7.63;4.38;;;17.00;99.90;;;;;;5032248;28;20083;-71
2022/08/01 05:39:17;;;;;;;8.43;4.65;;;17.00;99.90;;;;;;5031775;28;20045;-70
2022/08/01 05:41:42;;;;;;;6.75;4.05;;;17.00;99.90;;;;;;5031898;28;20441;-70
2022/08/01 05:44:08;;;;;;;6.80;4.40;;;17.00;99.90;;;;;;5032705;28;20461;-70
2022/08/01 05:46:35;;;;;;;7.70;4.80;;;17.10;99.90;;;;;;5030784;28;20033;-70
2022/08/01 05:49:02;;;;;;;8.07;4.05;;;17.10;99.90;;;;;;5029402;28;20125;-70
2022/08/01 05:51:28;;;;;;;7.10;3.83;;;17.10;99.80;;;;;;5032377;28;20033;-70
2022/08/01 05:53:54;;;;;;;6.88;3.22;;;17.20;99.80;;;;;;5031441;28;20098;-70
2022/08/01 05:56:20;;;;;;;4.95;2.70;;;17.20;99.70;;;;;;5031333;28;20415;-70
2022/08/01 05:58:46;;;;;;;7.13;2.53;;;17.30;99.70;;;;;;5021605;28;20030;-70
2022/08/01 06:01:12;;;;;;;4.05;2.47;;;17.30;99.50;;;;;;5030184;28;20358;-70
2022/08/01 06:03:37;;;;;;;5.95;1.58;;;17.40;99.60;;;;;;5031030;28;20453;-70
2022/08/01 06:06:03;;;;;;;8.52;2.05;;;17.30;99.30;;;;;;5031547;28;20472;-70
2022/08/01 06:08:29;;;;;;;3.38;1.90;;;17.30;99.10;;;;;;5026182;28;20033;-70
2022/08/01 06:10:55;;;;;;;3.72;1.67;;;17.30;99.10;;;;;;5028734;28;20033;-70
2022/08/01 06:13:21;;;;;;;5.20;1.50;;;17.30;98.70;;;;;;5031567;28;20085;-70
2022/08/01 06:15:47;;;;;;;5.68;1.60;;;17.20;98.20;;;;;;5031531;28;20025;-70
2022/08/01 06:18:13;;;;;;;6.13;1.80;;;17.20;98.50;;;;;;5029372;28;20240;-70
2022/08/01 06:20:38;;;;;;;4.65;1.55;;;17.10;98.30;;;;;;5029118;28;20029;-70
2022/08/01 06:23:04;;;;;;;4.20;1.60;;;17.10;98.20;;;;;;5030157;28;20389;-70
2022/08/01 06:25:30;;;;;;;5.43;1.48;;;17.20;98.40;;;;;;5030837;28;20018;-70
2022/08/01 06:27:55;;;;;;;8.18;1.67;;;17.20;98.40;;;;;;5030887;28;20038;-70
2022/08/01 06:30:21;;;;;;;5.32;1.60;;;17.10;98.40;;;;;;5030190;28;20026;-70
2022/08/01 06:32:47;;;;;;;5.65;1.70;;;17.10;98.30;;;;;;5028683;28;20112;-70
2022/08/01 06:35:13;;;;;;;6.35;1.83;;;17.10;98.20;;;;;;5030814;28;20068;-70
2022/08/01 06:37:39;;;;;;;5.13;1.58;;;17.10;98.20;;;;;;5030680;28;20052;-71
2022/08/01 06:40:06;;;;;;;7.72;2.05;;;17.10;98.20;;;;;;5030401;28;20033;-71
2022/08/01 06:42:35;;;;;;;6.90;1.92;;;17.20;98.10;;;;;;5030642;28;20498;-71
2022/08/01 06:45:04;;;;;;;5.20;2.03;;;17.10;97.80;;;;;;5032111;28;20307;-71
2022/08/01 06:47:30;;;;;;;6.15;1.80;;;17.20;97.60;;;;;;5028718;28;20025;-71
2022/08/01 06:49:55;;;;;;;2.47;1.55;;;17.30;97.60;;;;;;5028699;28;20116;-71
2022/08/01 06:52:21;;;;;;;7.57;2.03;;;17.30;97.70;;;;;;5030790;28;20064;-71
2022/08/01 06:54:47;;;;;;;6.35;1.73;;;17.30;97.70;;;;;;5029039;28;20071;-71
2022/08/01 06:57:12;;;;;;;7.68;1.90;;;17.30;97.60;;;;;;5030387;28;20017;-71
2022/08/01 06:59:38;;;;;;;6.68;1.98;;;17.20;97.40;;;;;;5031109;28;20052;-71
2022/08/01 07:02:03;;;;;;;6.63;2.10;;;17.00;97.40;;;;;;5029031;28;20492;-71
2022/08/01 07:04:29;;;;;;;6.97;2.10;;;17.00;97.50;;;;;;5030246;28;20021;-70
2022/08/01 07:06:55;;;;;;;12.95;2.42;;;16.90;97.70;;;;;;5024984;28;20044;-71
2022/08/01 07:09:20;;;;;;;8.82;2.33;;;16.80;97.70;;;;;;5022448;28;20034;-71
2022/08/01 07:11:46;;;;;;;9.82;2.03;;;16.80;97.80;;;;;;5029673;28;20057;-71
2022/08/01 07:14:11;;;;;;;10.43;2.80;;;16.70;97.70;;;;;;5017687;28;20034;-71
2022/08/01 07:16:37;;;;;;;9.90;2.55;;;16.60;97.50;;;;;;5028111;28;20029;-71
2022/08/01 07:19:02;;;;;;;11.88;2.50;;;16.70;97.60;;;;;;5027865;28;20152;-71
2022/08/01 07:21:28;;;;;;;10.50;2.70;;;16.70;97.60;;;;;;5029891;28;20025;-71
2022/08/01 07:23:53;;;;;;;10.63;2.63;;;16.70;97.70;;;;;;5029969;28;20076;-71
2022/08/01 07:26:19;;;;;;;9.27;2.55;;;16.70;97.60;;;;;;5030135;28;20022;-71
2022/08/01 07:28:44;;;;;;;11.55;2.90;;;16.50;97.50;;;;;;5030699;28;20033;-70
2022/08/01 07:31:10;;;;;;;13.93;2.50;;;16.50;97.60;;;;;;5029758;28;20033;-71
2022/08/01 07:33:35;;;;;;;13.93;3.20;;;16.50;97.80;;;;;;5029131;28;20431;-70
2022/08/01 07:36:03;;;;;;;9.63;2.97;;;16.60;97.60;;;;;;5030122;28;20033;-71
2022/08/01 07:38:29;;;;;;;13.75;2.80;;;16.80;97.00;;;;;;5029147;28;20038;-73
2022/08/01 07:40:54;;;;;;;8.10;2.67;;;17.00;96.60;;;;;;5022758;28;20037;-71
2022/08/01 07:43:20;;;;;;;9.27;2.40;;;17.20;96.40;;;;;;5030035;28;20030;-71
2022/08/01 07:45:45;;;;;;;9.88;2.20;;;17.20;95.70;;;;;;5030438;28;20084;-71
2022/08/01 07:48:11;;;;;;;7.50;2.20;;;17.30;95.20;;;;;;5026960;28;20036;-71
2022/08/01 07:50:36;;;;;;;9.60;2.28;;;17.30;94.20;;;;;;5030178;28;20029;-71
2022/08/01 07:53:03;;;;;;;6.28;1.80;;;17.30;94.10;;;;;;5030287;28;20033;-71
2022/08/01 07:55:28;;;;;;;8.25;2.15;;;17.40;94.20;;;;;;5029582;28;20075;-71
2022/08/01 07:57:54;;;;;;;8.05;1.98;;;17.30;94.40;;;;;;5027070;28;20109;-71
2022/08/01 08:00:19;;;;;;;7.07;2.42;;;17.20;94.60;;;;;;5030364;28;20102;-71
2022/08/01 08:02:45;;;;;;;6.85;2.30;;;17.20;94.80;;;;;;5027849;28;20025;-71
2022/08/01 08:05:11;;;;;;;10.90;2.20;;;17.20;95.10;;;;;;5028949;28;20026;-71
2022/08/01 08:07:37;;;;;;;10.43;2.35;;;17.20;95.30;;;;;;5028566;28;20202;-71
2022/08/01 08:10:04;;;;;;;13.45;2.75;;;17.10;95.50;;;;;;5026288;28;20025;-71
2022/08/01 08:12:30;;;;;;;8.77;2.50;;;17.10;95.70;;;;;;5026989;28;20060;-71
2022/08/01 08:14:56;;;;;;;11.43;2.67;;;17.00;95.70;;;;;;5030161;28;20449;-71
2022/08/01 08:17:22;;;;;;;8.45;2.83;;;17.00;95.50;;;;;;5027838;28;20127;-70
2022/08/01 08:19:47;;;;;;;11.05;2.85;;;17.10;95.50;;;;;;5029605;28;20084;-71
2022/08/01 08:22:13;;;;;;;13.10;3.10;;;17.20;95.60;;;;;;5025696;28;20064;-71
2022/08/01 08:24:38;;;;;;;6.82;2.13;;;17.30;95.40;;;;;;5033261;28;20551;-71
2022/08/01 08:27:07;;;;;;;16.08;3.05;;;17.40;95.30;;;;;;5033431;28;20029;-71
2022/08/01 08:29:33;;;;;;;10.73;2.78;;;17.40;95.00;;;;;;5033795;28;20025;-71
2022/08/01 08:32:00;;;;;;;13.25;2.95;;;17.50;95.00;;;;;;5031979;28;20018;-71
2022/08/01 08:34:26;;;;;;;8.27;2.35;;;17.50;94.90;;;;;;5033093;28;20029;-71
2022/08/01 08:36:54;;;;;;;12.68;2.80;;;17.70;94.80;;;;;;5033312;28;20057;-71
2022/08/01 08:39:19;;;;;;;8.52;2.60;;;17.70;94.50;;;;;;5032547;28;20030;-71
2022/08/01 08:41:45;;;;;;;6.40;2.10;;;17.80;93.90;;;;;;5033176;28;20053;-71
2022/08/01 08:44:11;;;;;;;13.65;2.85;;;17.80;93.30;;;;;;5031416;28;20104;-71
2022/08/01 08:46:47;;;;;;;13.13;2.10;;;18.00;93.00;;;;;;5031629;28;20037;-71
2022/08/01 08:49:17;;;;;;;8.93;2.25;;;18.10;92.40;;;;;;5032773;28;20045;-71
2022/08/01 08:51:46;;;;;;;4.55;1.67;;;18.40;91.90;;;;;;5033313;28;20041;-71
2022/08/01 08:54:13;;;;;;;6.05;1.92;;;18.40;90.90;;;;;;5033059;28;20029;-71
2022/08/01 08:56:40;;;;;;;4.97;1.50;;;18.10;89.50;;;;;;5032793;28;20029;-71
2022/08/01 08:59:05;;;;;;;4.95;1.50;;;18.00;89.00;;;;;;5033255;28;20428;-70
2022/08/01 09:01:33;;;;;;;5.88;1.20;;;18.10;88.30;;;;;;5031557;28;20034;-71
2022/08/01 09:03:59;;;;;;;10.45;1.60;;;18.20;87.00;;;;;;5032347;28;20448;-71
2022/08/01 09:06:25;;;;;;;9.52;1.77;;;18.20;86.20;;;;;;5019728;28;20022;-71
2022/08/01 09:08:50;;;;;;;8.95;1.80;;;18.60;84.60;;;;;;5023460;28;20084;-71
2022/08/01 09:11:16;;;;;;;5.45;1.70;;;18.90;85.40;;;;;;5029685;28;20384;-71
2022/08/01 09:13:41;;;;;;;10.52;2.35;;;19.30;82.60;;;;;;5030596;28;20033;-71
2022/08/01 09:16:07;;;;;;;13.32;2.28;;;19.40;83.20;;;;;;5032262;28;20029;-71
2022/08/01 09:18:39;;;;;;;7.50;1.75;;;19.30;82.80;;;;;;5031273;28;20063;-71
2022/08/01 09:21:10;;;;;;;6.38;1.60;;;19.20;84.10;;;;;;5032825;28;20032;-71
2022/08/01 09:23:39;;;;;;;8.38;1.92;;;19.50;82.20;;;;;;5032090;28;20049;-71
2022/08/01 09:26:06;;;;;;;11.98;2.30;;;19.20;81.50;;;;;;5032445;28;20025;-71
2022/08/01 09:28:32;;;;;;;8.15;2.22;;;19.60;81.50;;;;;;5032618;28;20415;-71
2022/08/01 09:30:58;;;;;;;11.85;1.95;;;19.80;82.10;;;;;;5032611;28;20116;-71
2022/08/01 09:33:24;;;;;;;14.65;2.20;;;19.80;80.60;;;;;;5029941;28;20033;-71
2022/08/01 09:35:57;;;;;;;8.30;2.17;;;19.90;79.00;;;;;;5032284;28;20091;-71
2022/08/01 09:38:26;;;;;;;7.00;1.58;;;20.40;78.80;;;;;;5029699;28;20056;-71
2022/08/01 09:40:58;;;;;;;10.63;1.88;;;20.50;76.40;;;;;;5030796;28;20404;-71
2022/08/01 09:43:27;;;;;;;7.50;1.70;;;20.00;76.20;;;;;;5020938;28;20018;-71
2022/08/01 09:45:52;;;;;;;8.75;1.70;;;20.30;76.30;;;;;;5026553;28;20076;-71
2022/08/01 09:48:20;;;;;;;10.10;1.85;;;20.50;75.00;;;;;;5030415;28;20057;-71
2022/08/01 09:50:48;;;;;;;9.18;1.90;;;20.50;75.90;;;;;;5032052;28;20017;-71
2022/08/01 09:53:14;;;;;;;6.68;1.73;;;20.60;73.40;;;;;;5032615;28;20487;-71
2022/08/01 09:55:40;;;;;;;8.80;1.55;;;20.70;74.50;;;;;;5031446;28;20037;-71
2022/08/01 09:58:06;;;;;;;9.95;1.90;;;20.90;72.20;;;;;;5031439;28;20092;-71
2022/08/01 10:00:33;;;;;;;4.18;1.50;;;20.80;73.30;;;;;;5032093;28;20033;-71
2022/08/01 10:03:00;;;;;;;10.52;1.95;;;20.70;74.00;;;;;;5029499;28;20100;-71
2022/08/01 10:05:33;;;;;;;7.03;1.83;;;20.90;73.40;;;;;;5017859;28;20413;-71
2022/08/01 10:08:04;;;;;;;8.45;1.80;;;20.50;73.20;;;;;;5031732;28;20034;-71
2022/08/01 10:10:30;;;;;;;8.07;1.98;;;20.50;74.00;;;;;;5031194;28;20037;-71
2022/08/01 10:12:59;;;;;;;5.82;1.73;;;20.40;74.60;;;;;;5028846;28;20496;-71
2022/08/01 10:15:28;;;;;;;6.80;1.70;;;20.10;73.60;;;;;;5031684;28;20025;-71
2022/08/01 10:17:58;;;;;;;6.60;1.50;;;20.80;71.30;;;;;;5028202;28;20052;-71
2022/08/01 10:20:27;;;;;;;8.77;1.70;;;21.40;70.90;;;;;;5031383;28;20083;-71
2022/08/01 10:22:54;;;;;;;7.90;1.67;;;21.20;70.90;;;;;;5031445;28;20028;-71
2022/08/01 10:25:21;;;;;;;8.68;1.85;;;20.80;72.30;;;;;;5031177;28;20024;-72
2022/08/01 10:27:53;;;;;;;10.63;1.80;;;21.40;70.60;;;;;;5031311;28;20076;-72
2022/08/01 10:30:18;;;;;;;5.20;1.30;;;21.10;72.50;;;;;;5032024;28;20018;-72
2022/08/01 10:32:46;;;;;;;6.78;1.75;;;21.30;70.60;;;;;;5029135;28;20509;-72
2022/08/01 10:35:16;;;;;;;11.00;2.03;;;21.50;69.50;;;;;;5031009;28;20021;-72
2022/08/01 10:37:44;;;;;;;7.32;1.38;;;22.00;70.40;;;;;;5030599;28;20042;-72
2022/08/01 10:40:11;;;;;;;12.48;1.83;;;21.60;68.80;;;;;;5025256;28;20083;-72
2022/08/01 10:42:43;;;;;;;10.23;1.42;;;21.90;67.80;;;;;;5029577;28;20096;-72
2022/08/01 10:45:11;;;;;;;9.85;1.52;;;21.90;68.20;;;;;;5030869;28;20358;-71
2022/08/01 10:47:58;;;;;;;5.13;1.40;;;21.70;66.70;;;;;;5028885;28;20017;-72
2022/08/01 10:50:46;;;;;;;8.98;1.92;;;22.00;63.60;;;;;;5031032;28;20109;-72
2022/08/01 10:53:17;;;;;;;6.55;1.45;;;22.20;64.20;;;;;;5031197;28;20040;-72
2022/08/01 10:55:58;;;;;;;5.85;1.23;;;22.00;64.90;;;;;;5028632;28;20052;-72
2022/08/01 10:58:26;;;;;;;8.27;1.55;;;22.40;63.80;;;;;;5030745;28;20022;-72
2022/08/01 11:01:13;;;;;;;7.32;1.33;;;22.00;63.90;;;;;;5031159;28;20014;-71
2022/08/01 11:03:39;;;;;;;8.77;1.15;;;22.50;65.10;;;;;;5029982;28;20029;-72
2022/08/01 11:06:04;;;;;;;7.40;1.40;;;22.70;62.10;;;;;;5030716;28;20025;-72
2022/08/01 11:08:32;;;;;;;4.70;1.08;;;22.90;60.70;;;;;;5030227;28;20372;-72
2022/08/01 11:11:01;;;;;;;9.57;1.58;;;23.00;61.80;;;;;;5030664;28;20472;-72
2022/08/01 11:13:58;;;;;;;6.80;1.15;;;23.10;60.30;;;;;;5028522;28;20373;-72
2022/08/01 11:16:32;;;;;;;8.13;1.60;;;23.00;57.80;;;;;;5029359;28;20104;-72
2022/08/01 11:18:58;;;;;;;5.07;1.20;;;22.90;59.80;;;;;;5029704;28;20068;-72
2022/08/01 11:21:59;;;;;;;8.82;1.48;;;22.90;58.70;;;;;;5031012;28;20028;-72
2022/08/01 11:24:43;;;;;;;;;;;23.00;57.70;;;;;;5030418;28;20030;-72
2022/08/01 11:27:29;;;;;;;5.30;1.30;;;22.70;59.00;;;;;;5030295;28;20000;-72
2022/08/01 11:30:09;;;;;;;8.27;1.60;;;23.20;57.80;;;;;;5021605;28;20540;-72
2022/08/01 11:32:48;;;;;;;8.98;1.42;;;23.40;60.20;;;;;;5028093;28;20026;-72
2022/08/01 11:35:15;;;;;;;8.10;1.48;;;23.20;57.40;;;;;;5025013;28;20028;-72
2022/08/01 11:37:41;;;;;;;5.45;1.50;;;23.50;57.20;;;;;;5030143;28;20081;-72
2022/08/01 11:40:24;;;;;;;7.60;1.73;;;23.20;57.80;;;;;;5029688;28;20128;-72
2022/08/01 11:43:11;;;;;;;5.10;1.35;;;23.30;58.60;;;;;;5018915;28;20101;-72
2022/08/01 11:45:47;;;;;;;5.57;1.30;;;23.50;59.00;;;;;;5029257;28;20033;-72
2022/08/01 11:48:21;;;;;;;5.43;1.23;;;23.70;54.90;;;;;;5016198;28;20037;-72
2022/08/01 11:50:47;;;;;;;6.95;1.55;;;23.40;56.90;;;;;;5029855;28;20112;-72
2022/08/01 11:53:15;;;;;;;5.90;1.33;;;23.40;56.10;;;;;;5030405;28;20109;-72
2022/08/01 11:55:48;;;;;;;7.18;1.30;;;23.40;56.70;;;;;;5029527;28;20334;-72
2022/08/01 11:58:14;;;;;;;10.43;1.48;;;23.60;54.10;;;;;;5033985;28;20021;-72
2022/08/01 12:00:40;;;;;;;3.67;0.80;;;23.80;52.60;;;;;;5034474;28;20033;-72
2022/08/01 12:03:07;;;;;;;4.22;1.48;;;24.00;54.00;;;;;;5027694;28;20024;-72
2022/08/01 12:05:36;;;;;;;4.78;1.20;;;24.00;53.80;;;;;;5034162;28;20112;-72
2022/08/01 12:08:03;;;;;;;4.78;1.55;;;24.00;54.80;;;;;;5032867;28;20049;-72
2022/08/01 12:10:38;;;;;;;6.35;1.88;;;24.00;54.10;;;;;;5033557;28;20484;-72
2022/08/01 12:13:06;;;;;;;6.95;1.27;;;24.50;55.20;;;;;;5028239;28;20013;-72
2022/08/01 12:15:34;;;;;;;3.92;1.10;;;24.00;52.40;;;;;;5033296;28;20516;-72
2022/08/01 12:18:05;;;;;;;5.15;1.17;;;24.70;52.00;;;;;;5031853;28;20029;-72
2022/08/01 12:20:34;;;;;;;8.95;1.67;;;23.90;52.90;;;;;;5033825;28;20465;-72
2022/08/01 12:23:07;;;;;;;6.18;1.33;;;24.40;54.20;;;;;;5033878;28;20026;-72
2022/08/01 12:25:35;;;;;;;4.22;1.15;;;24.20;51.80;;;;;;5033587;28;20399;-72
2022/08/01 12:28:02;;;;;;;6.13;1.33;;;24.40;50.80;;;;;;5027121;28;20018;-72
2022/08/01 12:30:30;;;;;;;7.47;1.13;;;24.70;51.20;;;;;;5020664;28;20064;-72
2022/08/01 12:32:56;;;;;;;5.43;1.80;;;24.90;51.90;;;;;;5031812;28;20040;-72
2022/08/01 12:35:24;;;;;;;7.35;1.50;;;25.00;50.20;;;;;;5033190;28;20053;-72
2022/08/01 12:37:52;;;;;;;6.95;1.48;;;25.40;52.00;;;;;;5032001;28;20528;-72
2022/08/01 12:40:20;;;;;;;4.88;1.10;;;25.80;51.00;;;;;;5033293;28;20041;-72
2022/08/01 12:42:49;;;;;;;3.60;0.88;;;25.60;50.60;;;;;;5030765;28;20399;-72
2022/08/01 12:45:19;;;;;;;6.78;1.38;;;25.50;49.10;;;;;;5032008;28;20086;-72